Time;durP1;ratioP1;P1;durP2;ratioP2;P2;SDS_P1;SDS_P2;PMS_P1;PMS_P2;Temp;Humidity;BMP_temperature;BMP_pressure;BME280_temperature;BME280_humidity;BME280_pressure;Samples;Min_cycle;Max_cycle;Signal;HPM_P1;HPM_P2
2023/11/30 00:02:21;;;;;;;4.60;4.22;;;;;;;-1.04;100.00;99847.63;6104110;23;20025;-68
2023/11/30 00:04:48;;;;;;;4.03;3.83;;;;;;;-1.02;100.00;99840.72;6084407;23;20500;-67
2023/11/30 00:07:14;;;;;;;4.97;4.68;;;;;;;-1.02;100.00;99844.13;6085718;23;20037;-68
2023/11/30 00:09:41;;;;;;;4.40;4.10;;;;;;;-0.99;100.00;99847.53;6102903;23;20609;-68
2023/11/30 00:12:07;;;;;;;4.25;4.05;;;;;;;-0.96;100.00;99856.03;6092903;23;20033;-67
2023/11/30 00:14:33;;;;;;;13.65;4.80;;;;;;;-0.94;100.00;99841.41;6099642;23;20020;-67
2023/11/30 00:17:02;;;;;;;3.60;3.40;;;;;;;-1.30;100.00;99773.44;6111280;23;20495;-68
2023/11/30 00:19:28;;;;;;;7.90;7.15;;;;;;;-0.83;100.00;99851.50;6078708;23;20041;-68
2023/11/30 00:21:55;;;;;;;4.07;3.78;;;;;;;-0.88;100.00;99846.44;6111247;23;20276;-67
2023/11/30 00:24:22;;;;;;;4.22;3.90;;;;;;;-0.79;100.00;99844.56;6104213;23;20029;-67
2023/11/30 00:26:48;;;;;;;5.07;4.75;;;;;;;-0.78;100.00;99838.53;6102323;23;20382;-68
2023/11/30 00:29:14;;;;;;;6.82;4.25;;;;;;;-1.18;100.00;99770.63;6108527;23;20021;-67
2023/11/30 00:31:41;;;;;;;5.20;4.20;;;;;;;-0.85;100.00;99828.34;6077229;23;20032;-68
2023/11/30 00:34:07;;;;;;;3.38;3.17;;;;;;;-0.80;100.00;99825.69;6093109;23;20109;-68
2023/11/30 00:36:33;;;;;;;4.60;4.30;;;;;;;-0.72;100.00;99839.28;6107528;23;20514;-68
2023/11/30 00:39:00;;;;;;;3.88;3.67;;;;;;;-0.75;100.00;99831.59;6077574;23;20076;-67
2023/11/30 00:41:26;;;;;;;5.63;5.32;;;;;;;-0.75;100.00;99829.00;6102259;23;20025;-68
2023/11/30 00:43:53;;;;;;;4.10;3.80;;;;;;;-0.74;100.00;99825.56;6085212;23;20042;-67
2023/11/30 00:46:19;;;;;;;4.00;3.80;;;;;;;-0.74;100.00;99829.84;6107335;23;20092;-67
2023/11/30 00:48:46;;;;;;;4.05;3.78;;;;;;;-0.72;100.00;99825.53;6106042;23;20584;-67
2023/11/30 00:51:13;;;;;;;3.92;3.70;;;;;;;-0.77;100.00;99840.25;6086117;23;20149;-69
2023/11/30 00:53:40;;;;;;;11.30;4.03;;;;;;;-1.05;100.00;99802.97;6106559;23;20380;-67
2023/11/30 00:56:09;;;;;;;4.25;4.05;;;;;;;-0.85;100.00;99841.22;6107015;23;20424;-67
2023/11/30 00:58:36;;;;;;;3.58;3.38;;;;;;;-1.30;100.00;99771.72;6089046;23;20026;-67
2023/11/30 01:01:03;;;;;;;5.60;5.05;;;;;;;-0.86;100.00;99846.44;6108108;23;20033;-68
2023/11/30 01:03:30;;;;;;;5.05;4.75;;;;;;;-0.90;100.00;99845.63;6077883;23;20431;-68
2023/11/30 01:05:56;;;;;;;4.50;4.20;;;;;;;-0.92;100.00;99837.09;6107116;23;20281;-68
2023/11/30 01:08:23;;;;;;;3.78;3.58;;;;;;;-0.91;100.00;99832.78;6083963;23;20231;-67
2023/11/30 01:10:49;;;;;;;4.90;4.63;;;;;;;-0.89;100.00;99831.84;6107717;23;20030;-67
2023/11/30 01:13:16;;;;;;;13.10;4.97;;;;;;;-0.78;100.00;99833.38;6109051;23;20021;-67
2023/11/30 01:15:42;;;;;;;3.60;3.50;;;;;;;-0.73;100.00;99836.72;6103748;23;20021;-67
2023/11/30 01:18:09;;;;;;;3.88;3.67;;;;;;;-0.70;100.00;99829.78;6112881;23;20001;-67
2023/11/30 01:20:35;;;;;;;4.40;4.13;;;;;;;-0.67;100.00;99837.44;6106657;23;20091;-68
2023/11/30 01:23:02;;;;;;;3.65;3.30;;;;;;;-0.80;100.00;99810.25;6088822;23;20079;-67
2023/11/30 01:25:28;;;;;;;5.93;5.55;;;;;;;-0.77;100.00;99809.31;6107820;23;20377;-70
2023/11/30 01:27:55;;;;;;;3.75;3.55;;;;;;;-0.59;100.00;99826.97;6112423;23;20025;-68
2023/11/30 01:30:21;;;;;;;3.92;3.50;;;;;;;-0.80;100.00;99784.47;6112402;23;20369;-68
2023/11/30 01:32:48;;;;;;;3.40;3.30;;;;;;;-0.74;100.00;99799.81;6086263;23;20119;-67
2023/11/30 01:35:15;;;;;;;5.95;5.45;;;;;;;-1.06;100.00;99734.34;6110181;23;20052;-70
2023/11/30 01:37:42;;;;;;;3.40;3.20;;;;;;;-0.48;100.00;99830.19;6085271;23;20033;-67
2023/11/30 01:40:09;;;;;;;4.93;4.53;;;;;;;-0.53;100.00;99818.28;6113007;23;20041;-66
2023/11/30 01:42:36;;;;;;;3.78;3.58;;;;;;;-0.74;100.00;99768.03;6079159;23;20021;-68
2023/11/30 01:45:03;;;;;;;3.95;3.65;;;;;;;-0.93;100.00;99742.66;6104870;23;20817;-68
2023/11/30 01:47:31;;;;;;;5.93;5.53;;;;;;;-0.59;100.00;99778.03;6107954;23;20026;-67
2023/11/30 01:50:00;;;;;;;4.28;4.00;;;;;;;-0.90;100.00;99732.31;6108640;23;20122;-67
2023/11/30 01:52:28;;;;;;;4.72;4.13;;;;;;;-0.37;100.00;99826.53;6109100;23;20193;-68
2023/11/30 01:55:00;;;;;;;3.88;3.67;;;;;;;-0.91;100.00;99729.75;6114169;23;20287;-67
2023/11/30 01:57:28;;;;;;;5.25;4.95;;;;;;;-0.53;100.00;99777.03;6105267;23;20481;-68
2023/11/30 01:59:56;;;;;;;4.20;3.80;;;;;;;-0.84;100.00;99729.59;6110905;23;20663;-68
2023/11/30 02:02:23;;;;;;;4.13;3.88;;;;;;;-0.30;100.00;99825.50;6103465;23;20017;-67
2023/11/30 02:04:52;;;;;;;4.10;3.80;;;;;;;-0.32;100.00;99797.19;6108926;23;20025;-67
2023/11/30 02:07:20;;;;;;;4.53;4.28;;;;;;;-0.29;100.00;99794.53;6107400;23;20025;-67
2023/11/30 02:09:46;;;;;;;4.22;3.92;;;;;;;-0.34;100.00;99796.41;6111942;23;20254;-69
2023/11/30 02:12:13;;;;;;;5.85;5.55;;;;;;;-0.31;100.00;99804.03;6081975;23;20407;-67
2023/11/30 02:14:39;;;;;;;3.88;3.70;;;;;;;-0.35;100.00;99792.09;6104506;23;20030;-67
2023/11/30 02:17:05;;;;;;;3.65;3.45;;;;;;;-0.32;100.00;99796.34;6083926;23;20044;-67
2023/11/30 02:19:32;;;;;;;6.00;5.63;;;;;;;-0.31;100.00;99798.03;6104134;23;20021;-68
2023/11/30 02:21:58;;;;;;;5.30;3.90;;;;;;;-0.26;100.00;99807.38;6083255;23;20133;-67
2023/11/30 02:24:25;;;;;;;4.15;3.45;;;;;;;-0.81;100.00;99706.34;6108050;23;20373;-68
2023/11/30 02:26:51;;;;;;;4.75;4.45;;;;;;;-0.31;100.00;99793.72;6107875;23;20058;-68
2023/11/30 02:29:18;;;;;;;4.25;3.92;;;;;;;-0.35;100.00;99783.53;6106384;23;20283;-68
2023/11/30 02:31:44;;;;;;;3.95;3.65;;;;;;;-0.30;100.00;99804.88;6106121;23;20033;-68
2023/11/30 02:34:10;;;;;;;3.67;3.47;;;;;;;-0.33;100.00;99795.50;6093110;23;20029;-67
2023/11/30 02:36:37;;;;;;;4.60;4.20;;;;;;;-0.64;100.00;99747.22;6110482;23;20030;-68
2023/11/30 02:39:03;;;;;;;4.75;4.45;;;;;;;-0.45;100.00;99788.03;6085317;23;20006;-67
2023/11/30 02:41:30;;;;;;;4.63;4.43;;;;;;;-0.20;100.00;99811.56;6108010;23;20013;-68
2023/11/30 02:43:57;;;;;;;4.80;4.25;;;;;;;-0.11;100.00;99806.19;6106370;23;20178;-67
2023/11/30 02:46:23;;;;;;;4.03;3.60;;;;;;;-0.08;100.00;99795.81;6110336;23;20031;-67
2023/11/30 02:48:50;;;;;;;4.43;4.20;;;;;;;-0.15;100.00;99781.34;6089968;23;20029;-68
2023/11/30 02:51:16;;;;;;;3.83;3.63;;;;;;;-0.16;100.00;99799.41;6102650;23;20685;-67
2023/11/30 02:53:43;;;;;;;4.30;4.07;;;;;;;-0.58;100.00;99717.88;6084334;23;21838;-68
2023/11/30 02:56:10;;;;;;;4.30;3.95;;;;;;;-0.19;100.00;99805.50;6105338;23;20093;-68
2023/11/30 02:58:36;;;;;;;3.50;3.20;;;;;;;-0.19;100.00;99797.78;6106055;23;20398;-68
2023/11/30 03:01:03;;;;;;;3.72;3.53;;;;;;;-0.14;100.00;99795.94;6114208;23;20017;-69
2023/11/30 03:03:30;;;;;;;6.50;6.00;;;;;;;-0.73;100.00;99695.03;6078447;23;20479;-68
2023/11/30 03:05:56;;;;;;;3.88;3.67;;;;;;;-0.31;100.00;99757.63;6084691;23;20034;-67
2023/11/30 03:08:23;;;;;;;2.90;2.80;;;;;;;-0.20;100.00;99754.84;6105695;23;20118;-68
2023/11/30 03:10:51;;;;;;;4.43;4.07;;;;;;;-0.31;100.00;99744.75;6092176;23;20034;-68
2023/11/30 03:13:17;;;;;;;5.72;5.43;;;;;;;-0.01;100.00;99786.19;6106970;23;20452;-67
2023/11/30 03:15:45;;;;;;;8.95;5.25;;;;;;;-0.37;100.00;99715.69;6081360;23;20057;-68
2023/11/30 03:18:12;;;;;;;3.83;3.53;;;;;;;-0.04;100.00;99774.22;6109553;23;20566;-68
2023/11/30 03:20:39;;;;;;;3.50;3.38;;;;;;;-0.01;100.00;99781.84;6083801;23;20938;-67
2023/11/30 03:23:05;;;;;;;4.18;3.90;;;;;;;-0.02;100.00;99790.50;6108985;23;20025;-67
2023/11/30 03:25:33;;;;;;;5.93;5.63;;;;;;;-0.04;100.00;99784.53;6083371;23;20125;-67
2023/11/30 03:27:59;;;;;;;7.22;3.80;;;;;;;-0.03;100.00;99775.06;6109061;23;20014;-68
2023/11/30 03:30:26;;;;;;;4.47;4.18;;;;;;;-0.03;100.00;99773.31;6071846;23;20029;-67
2023/11/30 03:32:55;;;;;;;4.05;3.58;;;;;;;-0.06;100.00;99773.41;6104256;23;20017;-68
2023/11/30 03:35:22;;;;;;;6.05;5.50;;;;;;;-0.62;100.00;99681.03;6087549;23;20029;-67
2023/11/30 03:37:49;;;;;;;3.60;3.38;;;;;;;-0.02;100.00;99775.03;6101979;23;20013;-67
2023/11/30 03:40:16;;;;;;;6.82;4.20;;;;;;;0.00;100.00;99777.56;6089536;23;20036;-69
2023/11/30 03:42:42;;;;;;;3.80;3.60;;;;;;;-0.48;100.00;99703.91;6108377;23;20029;-67
2023/11/30 03:45:09;;;;;;;3.33;3.15;;;;;;;0.01;100.00;99788.72;6076410;23;20060;-67
2023/11/30 03:47:35;;;;;;;5.43;5.03;;;;;;;0.02;100.00;99782.66;6106400;23;20005;-68
2023/11/30 03:50:02;;;;;;;4.45;4.13;;;;;;;-0.57;100.00;99695.53;6104371;23;20026;-68
2023/11/30 03:52:28;;;;;;;4.50;4.20;;;;;;;-0.26;100.00;99748.06;6084482;23;20030;-68
2023/11/30 03:54:55;;;;;;;3.83;3.63;;;;;;;-0.03;100.00;99780.22;6108485;23;20029;-68
2023/11/30 03:57:21;;;;;;;4.88;4.60;;;;;;;-0.12;100.00;99765.81;6102128;23;20052;-67
2023/11/30 03:59:48;;;;;;;4.07;3.88;;;;;;;0.06;100.00;99789.44;6088036;23;20036;-68
2023/11/30 04:02:14;;;;;;;4.00;3.80;;;;;;;0.05;100.00;99786.03;6103939;23;21061;-68
2023/11/30 04:04:41;;;;;;;3.13;2.90;;;;;;;-0.01;100.00;99763.81;6109567;23;20040;-67
2023/11/30 04:07:08;;;;;;;5.30;4.80;;;;;;;0.10;100.00;99785.91;6080380;23;20451;-68
2023/11/30 04:09:37;;;;;;;6.85;5.63;;;;;;;0.12;100.00;99785.00;6103707;23;20559;-68
2023/11/30 04:12:04;;;;;;;5.28;4.93;;;;;;;0.12;100.00;99784.16;6080490;23;20247;-68
2023/11/30 04:14:30;;;;;;;4.03;3.80;;;;;;;0.13;100.00;99784.13;6103577;23;20053;-68
2023/11/30 04:16:57;;;;;;;3.60;3.30;;;;;;;0.13;100.00;99784.13;6092153;23;20282;-68
2023/11/30 04:19:27;;;;;;;5.05;4.78;;;;;;;-0.38;100.00;99703.69;6101057;23;20028;-73
2023/11/30 04:21:54;;;;;;;3.28;3.08;;;;;;;0.13;100.00;99788.44;6108366;23;20117;-70
2023/11/30 04:24:21;;;;;;;3.40;3.25;;;;;;;0.13;100.00;99783.28;6104807;23;20017;-69
2023/11/30 04:26:47;;;;;;;3.47;3.33;;;;;;;-0.25;100.00;99711.09;6103146;23;20086;-70
2023/11/30 04:29:13;;;;;;;5.68;4.18;;;;;;;0.13;100.00;99773.78;6108911;23;20026;-70
2023/11/30 04:31:40;;;;;;;5.18;4.70;;;;;;;0.12;100.00;99772.13;6103416;23;20040;-68
2023/11/30 04:34:06;;;;;;;3.50;3.30;;;;;;;0.13;100.00;99776.38;6087337;23;20018;-67
2023/11/30 04:36:33;;;;;;;3.55;3.38;;;;;;;0.13;100.00;99770.38;6109472;23;20049;-67
2023/11/30 04:38:59;;;;;;;5.93;5.47;;;;;;;-0.22;100.00;99707.56;6100561;23;20288;-68
2023/11/30 04:41:25;;;;;;;5.50;5.15;;;;;;;-0.21;100.00;99709.28;6084180;23;20041;-67
2023/11/30 04:43:52;;;;;;;3.65;3.45;;;;;;;-0.32;100.00;99696.66;6099568;23;20026;-67
2023/11/30 04:46:18;;;;;;;5.63;3.65;;;;;;;0.11;100.00;99769.56;6084926;23;20021;-69
2023/11/30 04:48:45;;;;;;;4.85;4.45;;;;;;;0.10;100.00;99766.16;6109506;23;20021;-68
2023/11/30 04:51:12;;;;;;;4.05;3.85;;;;;;;0.11;100.00;99772.16;6062721;23;20028;-66
2023/11/30 04:53:38;;;;;;;3.80;3.60;;;;;;;0.10;100.00;99762.69;6105356;23;20332;-69
2023/11/30 04:56:05;;;;;;;5.93;5.35;;;;;;;-0.04;100.00;99740.69;6101225;23;20045;-68
2023/11/30 04:58:31;;;;;;;4.63;4.32;;;;;;;0.17;100.00;99761.69;6079759;23;20010;-69
2023/11/30 05:00:58;;;;;;;5.45;4.32;;;;;;;0.10;100.00;99753.25;6079685;23;20578;-69
2023/11/30 05:03:24;;;;;;;8.55;6.15;;;;;;;-0.02;100.00;99738.03;6100973;23;20079;-66
2023/11/30 05:05:51;;;;;;;13.52;4.38;;;;;;;0.22;100.00;99769.28;6082342;23;20030;-68
2023/11/30 05:08:18;;;;;;;8.93;6.15;;;;;;;0.22;100.00;99761.56;6104977;23;20025;-68
2023/11/30 05:10:44;;;;;;;4.30;4.00;;;;;;;0.24;100.00;99759.78;6085150;23;20100;-68
2023/11/30 05:13:11;;;;;;;4.18;3.88;;;;;;;0.24;100.00;99765.81;6108480;23;20039;-71
2023/11/30 05:15:38;;;;;;;4.53;4.22;;;;;;;0.22;100.00;99759.84;6072231;23;20028;-71
2023/11/30 05:18:05;;;;;;;4.22;4.03;;;;;;;0.14;100.00;99762.59;6080757;23;20268;-72
2023/11/30 05:20:33;;;;;;;4.57;4.28;;;;;;;0.18;100.00;99778.84;6107646;23;20010;-71
2023/11/30 05:23:01;;;;;;;4.20;4.00;;;;;;;-0.12;100.00;99719.41;6101678;23;20014;-71
2023/11/30 05:25:31;;;;;;;6.28;5.95;;;;;;;0.25;100.00;99766.66;6076316;23;20021;-73
2023/11/30 05:27:58;;;;;;;4.57;4.28;;;;;;;-0.28;100.00;99679.38;6082683;23;20093;-72
2023/11/30 05:30:26;;;;;;;4.38;3.97;;;;;;;0.22;100.00;99762.44;6106876;23;21084;-72
2023/11/30 05:32:52;;;;;;;5.78;5.28;;;;;;;0.06;100.00;99732.69;6077198;23;20351;-71
2023/11/30 05:35:19;;;;;;;4.28;3.97;;;;;;;0.21;100.00;99758.13;6104365;23;20037;-73
2023/11/30 05:37:46;;;;;;;4.95;4.65;;;;;;;0.06;100.00;99738.72;6102741;23;21443;-71
2023/11/30 05:40:12;;;;;;;4.32;4.00;;;;;;;0.24;100.00;99747.75;6081328;23;20453;-72
2023/11/30 05:42:40;;;;;;;5.15;4.78;;;;;;;0.24;100.00;99758.06;6111965;23;21558;-70
2023/11/30 05:45:07;;;;;;;3.70;3.55;;;;;;;0.26;100.00;99747.69;6081167;23;20049;-70
2023/11/30 05:47:33;;;;;;;5.55;5.25;;;;;;;-0.06;100.00;99684.84;6105532;23;20315;-70
2023/11/30 05:50:00;;;;;;;7.68;5.22;;;;;;;0.26;100.00;99733.06;6076513;23;20053;-70
2023/11/30 05:52:26;;;;;;;5.10;4.60;;;;;;;0.09;100.00;99705.09;6105613;23;20022;-71
2023/11/30 05:54:54;;;;;;;4.40;3.83;;;;;;;0.27;100.00;99732.16;6107360;23;20028;-71
2023/11/30 05:57:21;;;;;;;4.53;4.22;;;;;;;-1.03;100.00;99519.72;6074063;23;20097;-71
2023/11/30 05:59:47;;;;;;;4.78;4.38;;;;;;;0.23;100.00;99727.13;6111127;23;20053;-71
2023/11/30 06:02:15;;;;;;;4.82;4.53;;;;;;;-0.67;100.00;99571.22;6107481;23;20041;-70
2023/11/30 06:04:51;;;;;;;8.98;5.38;;;;;;;0.26;100.00;99727.91;6113480;23;20142;-71
2023/11/30 06:07:19;;;;;;;3.80;3.60;;;;;;;0.32;100.00;99735.50;6109467;23;20039;-70
2023/11/30 06:09:46;;;;;;;3.42;3.17;;;;;;;0.30;100.00;99742.44;6107201;23;20032;-70
2023/11/30 06:12:13;;;;;;;6.32;5.00;;;;;;;0.29;100.00;99737.31;6088274;23;20056;-70
2023/11/30 06:14:43;;;;;;;4.20;3.90;;;;;;;0.27;100.00;99742.50;6087344;23;20487;-70
2023/11/30 06:17:09;;;;;;;4.85;4.55;;;;;;;-0.05;100.00;99691.72;6108992;23;20029;-71
2023/11/30 06:19:35;;;;;;;6.75;6.28;;;;;;;0.28;100.00;99740.75;6083290;23;20021;-70
2023/11/30 06:22:02;;;;;;;4.07;3.88;;;;;;;-0.06;100.00;99687.44;6111105;23;20053;-71
2023/11/30 06:24:29;;;;;;;4.28;3.97;;;;;;;-0.49;100.00;99616.31;6089040;23;20486;-70
2023/11/30 06:26:56;;;;;;;17.67;16.65;;;;;;;-0.29;100.00;99654.50;5949328;23;20819;-71
2023/11/30 06:29:24;;;;;;;6.82;6.28;;;;;;;0.12;100.00;99729.97;6107396;23;20473;-69
2023/11/30 06:31:51;;;;;;;3.67;3.42;;;;;;;0.16;100.00;99739.31;6068098;23;20357;-68
2023/11/30 06:34:17;;;;;;;5.53;5.13;;;;;;;0.13;100.00;99729.94;6109489;23;20067;-70
2023/11/30 06:36:44;;;;;;;4.70;4.30;;;;;;;0.11;100.00;99723.97;6110509;23;20025;-69
2023/11/30 06:39:10;;;;;;;4.25;3.88;;;;;;;0.10;100.00;99726.56;6084472;23;20025;-70
2023/11/30 06:41:36;;;;;;;5.05;4.85;;;;;;;0.09;100.00;99725.75;6106463;23;20113;-70
2023/11/30 06:44:03;;;;;;;3.80;3.60;;;;;;;0.10;100.00;99739.47;6081718;23;20084;-70
2023/11/30 06:46:29;;;;;;;4.60;4.20;;;;;;;0.14;100.00;99748.84;6088832;23;20488;-70
2023/11/30 06:48:56;;;;;;;4.00;3.80;;;;;;;0.14;100.00;99747.13;6110490;23;20025;-71
2023/11/30 06:51:22;;;;;;;6.20;5.75;;;;;;;0.17;100.00;99759.09;6082172;23;20046;-70
2023/11/30 06:53:49;;;;;;;4.43;4.13;;;;;;;0.18;100.00;99751.31;6109425;23;20045;-69
2023/11/30 06:56:15;;;;;;;4.40;4.13;;;;;;;-0.07;100.00;99722.69;6086826;23;20146;-70
2023/11/30 06:58:42;;;;;;;4.75;4.45;;;;;;;0.19;100.00;99753.00;6110487;23;20017;-71
2023/11/30 07:01:09;;;;;;;5.85;5.18;;;;;;;-0.29;100.00;99691.41;6090766;23;20433;-70
2023/11/30 07:03:36;;;;;;;5.78;5.38;;;;;;;0.23;100.00;99763.25;6105139;23;20025;-71
2023/11/30 07:06:09;;;;;;;5.05;4.65;;;;;;;0.23;100.00;99750.38;6084147;23;20029;-70
2023/11/30 07:08:35;;;;;;;3.17;2.92;;;;;;;0.28;100.00;99751.06;6107053;23;20051;-71
2023/11/30 07:11:06;;;;;;;3.92;3.67;;;;;;;0.29;100.00;99753.63;6088359;23;20044;-69
2023/11/30 07:13:33;;;;;;;8.25;6.05;;;;;;;0.29;100.00;99745.88;6106020;23;20035;-70
2023/11/30 07:15:59;;;;;;;4.82;4.43;;;;;;;0.30;100.00;99739.84;6104954;23;20037;-70
2023/11/30 07:18:26;;;;;;;5.63;5.07;;;;;;;0.35;100.00;99737.97;6104604;23;20141;-69
2023/11/30 07:20:52;;;;;;;4.70;4.40;;;;;;;-0.21;100.00;99653.41;6082851;23;20061;-70
2023/11/30 07:23:18;;;;;;;3.70;3.50;;;;;;;-0.65;100.00;99587.50;6107084;23;20045;-72
2023/11/30 07:25:45;;;;;;;9.70;5.88;;;;;;;0.29;100.00;99742.47;6081692;23;20010;-70
2023/11/30 07:28:12;;;;;;;5.20;4.90;;;;;;;0.34;100.00;99738.00;6099978;23;20052;-69
2023/11/30 07:30:41;;;;;;;3.80;3.60;;;;;;;-0.32;100.00;99626.19;6106147;23;20519;-71
2023/11/30 07:33:09;;;;;;;4.45;4.18;;;;;;;-0.14;100.00;99664.44;6087908;23;20054;-69
2023/11/30 07:35:39;;;;;;;5.50;5.00;;;;;;;-0.76;100.00;99550.81;6108710;23;20009;-69
2023/11/30 07:38:05;;;;;;;4.80;4.50;;;;;;;0.38;100.00;99739.63;6071092;23;20025;-70
2023/11/30 07:40:34;;;;;;;4.63;4.32;;;;;;;0.40;100.00;99740.44;6087826;23;20045;-69
2023/11/30 07:43:03;;;;;;;4.57;4.28;;;;;;;0.41;100.00;99731.81;6107390;23;20055;-69
2023/11/30 07:45:29;;;;;;;7.55;6.88;;;;;;;0.36;100.00;99723.34;6079583;23;20530;-70
2023/11/30 07:47:56;;;;;;;3.30;3.20;;;;;;;0.18;100.00;99693.69;6107540;23;20383;-70
2023/11/30 07:50:26;;;;;;;7.35;5.65;;;;;;;-0.21;100.00;99637.09;6085098;23;20022;-68
2023/11/30 07:52:53;;;;;;;5.43;5.03;;;;;;;0.51;100.00;99745.34;6098145;23;20256;-69
2023/11/30 07:55:20;;;;;;;4.97;4.43;;;;;;;0.57;100.00;99758.09;6085592;23;20405;-69
2023/11/30 07:57:47;;;;;;;4.38;4.10;;;;;;;0.54;100.00;99724.59;6100742;23;20026;-69
2023/11/30 08:00:15;;;;;;;5.43;4.93;;;;;;;0.68;100.00;99747.44;6082986;23;20053;-69
2023/11/30 08:02:42;;;;;;;3.60;3.40;;;;;;;-0.01;100.00;99621.09;6107076;23;20001;-69
2023/11/30 08:05:09;;;;;;;3.78;3.55;;;;;;;0.77;100.00;99729.97;6086031;23;20091;-69
2023/11/30 08:07:35;;;;;;;8.23;7.05;;;;;;;0.81;100.00;99741.06;6096762;23;20013;-70
2023/11/30 08:10:04;;;;;;;5.35;4.15;;;;;;;0.65;100.00;99711.41;6107758;23;20029;-69
2023/11/30 08:12:31;;;;;;;13.25;4.47;;;;;;;0.94;100.00;99751.91;6104464;23;20029;-69
2023/11/30 08:14:58;;;;;;;6.53;5.90;;;;;;;0.95;100.00;99754.44;6081169;23;20022;-69
2023/11/30 08:17:25;;;;;;;6.47;6.05;;;;;;;0.84;100.00;99720.31;6080049;23;20050;-70
2023/11/30 08:19:51;;;;;;;5.90;5.38;;;;;;;1.07;100.00;99742.09;6055936;23;20042;-69
2023/11/30 08:22:17;;;;;;;5.10;4.65;;;;;;;1.14;100.00;99741.00;6103705;23;20451;-67
2023/11/30 08:24:44;;;;;;;4.35;4.07;;;;;;;0.79;100.00;99684.28;6104961;23;21769;-68
2023/11/30 08:27:10;;;;;;;5.18;4.47;;;;;;;1.16;100.00;99742.69;6094400;23;20428;-70
2023/11/30 08:29:37;;;;;;;10.25;6.07;;;;;;;1.19;100.00;99744.31;6080280;23;20329;-69
2023/11/30 08:32:04;;;;;;;5.93;5.20;;;;;;;1.30;100.00;99749.16;6076728;23;20302;-70
2023/11/30 08:34:30;;;;;;;5.10;4.80;;;;;;;1.24;100.00;99737.25;6105720;23;20021;-69
2023/11/30 08:36:56;;;;;;;5.65;5.25;;;;;;;1.14;100.00;99712.59;6085310;23;20288;-69
2023/11/30 08:39:23;;;;;;;7.40;5.72;;;;;;;1.35;100.00;99742.13;6098269;23;20029;-68
2023/11/30 08:41:50;;;;;;;5.55;5.05;;;;;;;1.38;100.00;99735.13;6088074;23;20891;-69
2023/11/30 08:44:17;;;;;;;5.32;4.47;;;;;;;1.44;100.00;99730.66;6098186;23;20409;-68
2023/11/30 08:46:43;;;;;;;4.72;4.35;;;;;;;1.56;100.00;99728.56;6079287;23;20165;-67
2023/11/30 08:49:11;;;;;;;10.55;4.95;;;;;;;1.55;100.00;99721.69;6106073;23;20298;-69
2023/11/30 08:51:38;;;;;;;4.45;4.13;;;;;;;1.71;100.00;99744.50;6104636;23;20163;-69
2023/11/30 08:54:08;;;;;;;6.07;5.53;;;;;;;1.70;100.00;99710.00;6086657;23;20031;-69
2023/11/30 08:56:35;;;;;;;5.55;4.35;;;;;;;1.68;100.00;99700.59;6103153;23;20088;-69
2023/11/30 08:59:01;;;;;;;4.90;4.45;;;;;;;1.48;100.00;99644.34;6106560;23;20025;-69
2023/11/30 09:01:28;;;;;;;5.55;5.25;;;;;;;1.70;100.00;99660.84;6082677;23;20072;-69
2023/11/30 09:04:00;;;;;;;5.32;4.85;;;;;;;1.85;100.00;99666.44;6103609;23;20504;-69
2023/11/30 09:06:27;;;;;;;3.97;3.75;;;;;;;1.85;100.00;99654.34;6081593;23;20092;-69
2023/11/30 09:08:53;;;;;;;4.90;4.50;;;;;;;2.01;100.00;99677.13;6102298;23;20017;-69
2023/11/30 09:11:20;;;;;;;6.50;5.90;;;;;;;1.84;100.00;99685.44;6105400;23;20041;-70
2023/11/30 09:13:47;;;;;;;5.07;4.65;;;;;;;1.38;100.00;99594.69;6081456;23;20390;-69
2023/11/30 09:16:13;;;;;;;5.07;4.72;;;;;;;1.85;100.00;99659.53;6108540;23;20037;-69
2023/11/30 09:18:39;;;;;;;4.97;4.53;;;;;;;1.87;100.00;99659.47;6108361;23;20045;-69
2023/11/30 09:21:06;;;;;;;6.45;6.00;;;;;;;1.92;100.00;99649.81;6084128;23;20070;-69
2023/11/30 09:23:33;;;;;;;6.85;6.35;;;;;;;1.53;100.00;99583.84;6106705;23;20025;-68
2023/11/30 09:26:05;;;;;;;4.07;3.88;;;;;;;1.87;100.00;99641.38;6103772;23;20671;-70
2023/11/30 09:28:32;;;;;;;;;;;;;;;1.93;100.00;99646.34;6086035;23;20038;-69
2023/11/30 09:31:05;;;;;;;5.32;5.03;;;;;;;0.53;100.00;99420.88;6108150;23;19975;-69
2023/11/30 09:33:32;;;;;;;8.30;7.65;;;;;;;1.58;100.00;99574.22;6082922;23;20122;-68
2023/11/30 09:35:59;;;;;;;9.40;7.15;;;;;;;2.05;100.00;99645.94;6112212;23;20057;-69
2023/11/30 09:38:25;;;;;;;4.38;4.13;;;;;;;1.51;100.00;99536.50;6103986;23;20041;-69
2023/11/30 09:40:52;;;;;;;4.53;4.22;;;;;;;0.70;100.00;99389.34;6109555;23;20039;-69
2023/11/30 09:43:19;;;;;;;6.53;5.80;;;;;;;0.91;100.00;99400.72;6081552;23;20092;-70
2023/11/30 09:45:47;;;;;;;4.25;3.88;;;;;;;1.98;100.00;99583.19;6104449;23;20013;-69
2023/11/30 09:48:14;;;;;;;6.30;5.75;;;;;;;1.42;100.00;99485.09;6101976;23;20021;-70
2023/11/30 09:50:41;;;;;;;5.22;4.93;;;;;;;1.68;100.00;99504.06;6102887;23;20030;-70
2023/11/30 09:53:10;;;;;;;6.28;4.60;;;;;;;2.05;100.00;99562.28;6104915;23;20052;-70
2023/11/30 09:55:37;;;;;;;5.75;5.25;;;;;;;2.03;100.00;99564.06;6104878;23;20026;-69
2023/11/30 09:58:04;;;;;;;5.15;4.82;;;;;;;1.95;100.00;99560.00;6088586;23;20013;-69
2023/11/30 10:00:31;;;;;;;6.75;4.60;;;;;;;1.97;100.00;99550.44;6108739;23;20033;-69
2023/11/30 10:02:59;;;;;;;4.90;4.60;;;;;;;1.64;100.00;99487.78;6106328;23;20033;-69
2023/11/30 10:05:28;;;;;;;5.82;5.43;;;;;;;1.94;100.00;99544.53;6108477;23;20101;-68
2023/11/30 10:07:58;;;;;;;4.75;4.38;;;;;;;1.94;100.00;99539.34;6084890;23;20022;-69
2023/11/30 10:10:25;;;;;;;4.97;4.70;;;;;;;1.91;100.00;99536.88;6108878;23;20252;-69
2023/11/30 10:12:53;;;;;;;5.60;5.07;;;;;;;1.88;100.00;99531.81;6085904;23;20390;-69
2023/11/30 10:15:20;;;;;;;7.45;6.75;;;;;;;2.05;100.00;99551.94;6104277;23;20061;-69
2023/11/30 10:17:48;;;;;;;4.63;4.18;;;;;;;2.01;100.00;99529.66;6093108;23;20458;-69
2023/11/30 10:20:16;;;;;;;6.75;6.32;;;;;;;1.85;100.00;99490.53;6104318;23;20390;-69
2023/11/30 10:22:43;;;;;;;6.28;4.38;;;;;;;2.09;100.00;99500.00;6083885;23;20077;-70
2023/11/30 10:25:10;;;;;;;5.07;4.57;;;;;;;1.78;100.00;99441.63;6107078;23;20037;-69
2023/11/30 10:27:36;;;;;;;5.82;5.25;;;;;;;2.32;100.00;99503.47;6104791;23;20329;-69
2023/11/30 10:30:04;;;;;;;10.63;5.43;;;;;;;1.84;100.00;99426.75;6106827;23;20021;-69
2023/11/30 10:32:32;;;;;;;6.28;5.43;;;;;;;2.20;100.00;99473.72;6107159;23;20029;-69
2023/11/30 10:35:05;;;;;;;4.88;4.53;;;;;;;2.15;100.00;99475.63;6110784;23;20391;-69
2023/11/30 10:37:40;;;;;;;9.82;9.00;;;;;;;2.15;100.00;99468.72;6081339;23;20025;-70
2023/11/30 10:40:12;;;;;;;5.63;5.22;;;;;;;1.30;100.00;99328.72;6109801;23;20432;-69
2023/11/30 10:42:41;;;;;;;5.25;4.68;;;;;;;2.20;100.00;99478.88;6109386;23;20036;-69
2023/11/30 10:45:08;;;;;;;5.50;4.95;;;;;;;1.75;100.00;99391.75;6104592;23;20033;-69
2023/11/30 10:47:35;;;;;;;6.95;6.38;;;;;;;2.25;100.00;99469.22;6087118;23;20024;-70
2023/11/30 10:50:05;;;;;;;5.72;5.35;;;;;;;1.83;100.00;99405.22;6107002;23;20550;-69
2023/11/30 10:52:32;;;;;;;6.20;5.47;;;;;;;1.83;100.00;99389.72;6086433;23;20049;-70
2023/11/30 10:55:09;;;;;;;4.85;4.55;;;;;;;2.37;100.00;99465.31;6110333;23;20032;-69
2023/11/30 10:57:39;;;;;;;6.25;5.75;;;;;;;2.09;100.00;99408.59;6101679;23;20413;-69
2023/11/30 11:00:10;;;;;;;6.47;5.82;;;;;;;2.45;100.00;99458.09;6110950;23;20100;-69
2023/11/30 11:02:38;;;;;;;11.27;7.10;;;;;;;2.48;100.00;99447.59;6103793;23;20063;-69
2023/11/30 11:05:14;;;;;;;5.57;5.07;;;;;;;2.57;100.00;99449.00;6096473;23;20103;-70
2023/11/30 11:07:50;;;;;;;13.40;8.20;;;;;;;2.62;100.00;99441.03;6073236;23;20093;-68
2023/11/30 11:10:22;;;;;;;5.25;4.85;;;;;;;2.78;100.00;99435.19;6107832;23;20033;-69
2023/11/30 11:12:50;;;;;;;4.80;4.47;;;;;;;2.92;100.00;99431.19;6087135;23;20480;-69
2023/11/30 11:15:21;;;;;;;5.68;4.95;;;;;;;3.05;100.00;99432.38;6104149;23;20096;-69
2023/11/30 11:17:53;;;;;;;4.97;4.68;;;;;;;3.07;100.00;99403.81;6060835;23;20032;-69
2023/11/30 11:20:24;;;;;;;9.45;8.45;;;;;;;3.14;100.00;99400.03;6106222;23;20108;-69
2023/11/30 11:22:53;;;;;;;;;;;;;;;3.31;100.00;99391.56;6103948;23;20401;-70
2023/11/30 11:25:20;;;;;;;6.05;5.63;;;;;;;3.31;100.00;99365.63;6080113;23;20083;-69
2023/11/30 11:27:46;;;;;;;5.22;4.78;;;;;;;2.29;100.00;99204.16;6101497;23;20025;-69
2023/11/30 11:30:14;;;;;;;4.95;4.65;;;;;;;3.09;100.00;99322.47;6108838;23;20022;-70